sensor_id;sensor_type;location;lat;lon;timestamp;P1;durP1;ratioP1;P2;durP2;ratioP2
10902;SDS011;5504;47.312;11.060;2023-03-17T00:01:26;2.37;;;1.90;;
10902;SDS011;5504;47.312;11.060;2023-03-17T00:03:52;2.70;;;2.10;;
10902;SDS011;5504;47.312;11.060;2023-03-17T00:06:24;2.13;;;1.90;;
10902;SDS011;5504;47.312;11.060;2023-03-17T00:08:53;2.87;;;2.10;;
10902;SDS011;5504;47.312;11.060;2023-03-17T00:11:19;2.80;;;2.00;;
10902;SDS011;5504;47.312;11.060;2023-03-17T00:13:45;2.33;;;1.53;;
10902;SDS011;5504;47.312;11.060;2023-03-17T00:16:18;2.20;;;1.93;;
10902;SDS011;5504;47.312;11.060;2023-03-17T00:18:46;2.57;;;1.93;;
10902;SDS011;5504;47.312;11.060;2023-03-17T00:21:20;3.07;;;2.20;;
10902;SDS011;5504;47.312;11.060;2023-03-17T00:23:53;1.83;;;1.40;;
10902;SDS011;5504;47.312;11.060;2023-03-17T00:26:20;1.73;;;1.40;;
10902;SDS011;5504;47.312;11.060;2023-03-17T00:28:46;2.30;;;1.53;;
10902;SDS011;5504;47.312;11.060;2023-03-17T00:31:16;2.40;;;1.77;;
10902;SDS011;5504;47.312;11.060;2023-03-17T00:33:45;2.10;;;1.80;;
10902;SDS011;5504;47.312;11.060;2023-03-17T00:36:16;3.23;;;1.97;;
10902;SDS011;5504;47.312;11.060;2023-03-17T00:38:45;1.73;;;1.63;;
10902;SDS011;5504;47.312;11.060;2023-03-17T00:41:11;2.03;;;1.60;;
10902;SDS011;5504;47.312;11.060;2023-03-17T00:43:38;1.77;;;1.50;;
10902;SDS011;5504;47.312;11.060;2023-03-17T00:46:14;2.27;;;1.80;;
10902;SDS011;5504;47.312;11.060;2023-03-17T00:48:47;2.60;;;1.90;;
10902;SDS011;5504;47.312;11.060;2023-03-17T00:51:13;2.20;;;1.90;;
10902;SDS011;5504;47.312;11.060;2023-03-17T00:53:42;1.70;;;1.60;;
10902;SDS011;5504;47.312;11.060;2023-03-17T00:56:12;1.87;;;1.60;;
10902;SDS011;5504;47.312;11.060;2023-03-17T00:58:39;1.83;;;1.50;;
10902;SDS011;5504;47.312;11.060;2023-03-17T01:01:06;1.50;;;1.40;;
10902;SDS011;5504;47.312;11.060;2023-03-17T01:03:32;2.27;;;1.60;;
10902;SDS011;5504;47.312;11.060;2023-03-17T01:05:58;2.70;;;1.40;;
10902;SDS011;5504;47.312;11.060;2023-03-17T01:08:25;2.27;;;1.70;;
10902;SDS011;5504;47.312;11.060;2023-03-17T01:10:54;3.17;;;2.00;;
10902;SDS011;5504;47.312;11.060;2023-03-17T01:13:20;2.07;;;1.70;;
10902;SDS011;5504;47.312;11.060;2023-03-17T01:15:47;2.23;;;1.70;;
10902;SDS011;5504;47.312;11.060;2023-03-17T01:18:15;2.43;;;1.73;;
10902;SDS011;5504;47.312;11.060;2023-03-17T01:20:43;2.03;;;1.60;;
10902;SDS011;5504;47.312;11.060;2023-03-17T01:23:09;1.73;;;1.63;;
10902;SDS011;5504;47.312;11.060;2023-03-17T01:25:37;2.47;;;1.90;;
10902;SDS011;5504;47.312;11.060;2023-03-17T01:28:04;2.77;;;1.40;;
10902;SDS011;5504;47.312;11.060;2023-03-17T01:30:35;1.60;;;1.50;;
10902;SDS011;5504;47.312;11.060;2023-03-17T01:33:03;2.23;;;1.60;;
10902;SDS011;5504;47.312;11.060;2023-03-17T01:35:29;2.00;;;1.60;;
10902;SDS011;5504;47.312;11.060;2023-03-17T01:37:55;2.43;;;1.70;;
10902;SDS011;5504;47.312;11.060;2023-03-17T01:40:23;2.27;;;1.40;;
10902;SDS011;5504;47.312;11.060;2023-03-17T01:48:43;2.30;;;1.70;;
10902;SDS011;5504;47.312;11.060;2023-03-17T01:51:15;1.67;;;1.50;;
10902;SDS011;5504;47.312;11.060;2023-03-17T01:53:46;2.03;;;1.60;;
10902;SDS011;5504;47.312;11.060;2023-03-17T01:56:15;2.50;;;1.50;;
10902;SDS011;5504;47.312;11.060;2023-03-17T01:58:42;1.60;;;1.50;;
10902;SDS011;5504;47.312;11.060;2023-03-17T02:01:10;2.50;;;1.50;;
10902;SDS011;5504;47.312;11.060;2023-03-17T02:03:36;4.00;;;1.50;;
10902;SDS011;5504;47.312;11.060;2023-03-17T02:06:03;3.37;;;1.50;;
10902;SDS011;5504;47.312;11.060;2023-03-17T02:08:31;2.37;;;1.60;;
10902;SDS011;5504;47.312;11.060;2023-03-17T02:10:57;2.07;;;1.70;;
10902;SDS011;5504;47.312;11.060;2023-03-17T02:13:23;2.00;;;1.80;;
10902;SDS011;5504;47.312;11.060;2023-03-17T02:15:49;1.63;;;1.43;;
10902;SDS011;5504;47.312;11.060;2023-03-17T02:18:17;2.03;;;1.73;;
10902;SDS011;5504;47.312;11.060;2023-03-17T02:23:10;2.07;;;1.60;;
10902;SDS011;5504;47.312;11.060;2023-03-17T02:25:39;2.13;;;1.70;;
10902;SDS011;5504;47.312;11.060;2023-03-17T02:28:13;3.03;;;1.70;;
10902;SDS011;5504;47.312;11.060;2023-03-17T02:30:41;1.93;;;1.73;;
10902;SDS011;5504;47.312;11.060;2023-03-17T02:33:07;3.30;;;1.80;;
10902;SDS011;5504;47.312;11.060;2023-03-17T02:35:34;2.80;;;1.90;;
10902;SDS011;5504;47.312;11.060;2023-03-17T02:38:00;2.13;;;1.70;;
10902;SDS011;5504;47.312;11.060;2023-03-17T02:40:26;2.63;;;1.70;;
10902;SDS011;5504;47.312;11.060;2023-03-17T02:42:52;3.33;;;1.60;;
10902;SDS011;5504;47.312;11.060;2023-03-17T02:45:18;5.57;;;1.50;;
10902;SDS011;5504;47.312;11.060;2023-03-17T02:47:44;1.83;;;1.30;;
10902;SDS011;5504;47.312;11.060;2023-03-17T02:50:19;4.03;;;1.50;;
10902;SDS011;5504;47.312;11.060;2023-03-17T02:52:47;3.23;;;1.40;;
10902;SDS011;5504;47.312;11.060;2023-03-17T02:55:13;2.87;;;1.40;;
10902;SDS011;5504;47.312;11.060;2023-03-17T02:57:39;1.53;;;1.20;;
10902;SDS011;5504;47.312;11.060;2023-03-17T03:00:06;2.00;;;1.60;;
10902;SDS011;5504;47.312;11.060;2023-03-17T03:02:34;1.93;;;1.33;;
10902;SDS011;5504;47.312;11.060;2023-03-17T03:05:01;2.03;;;1.50;;
10902;SDS011;5504;47.312;11.060;2023-03-17T03:07:28;1.40;;;1.30;;
10902;SDS011;5504;47.312;11.060;2023-03-17T03:09:53;2.17;;;1.63;;
10902;SDS011;5504;47.312;11.060;2023-03-17T03:12:19;1.97;;;1.60;;
10902;SDS011;5504;47.312;11.060;2023-03-17T03:14:45;2.60;;;1.60;;
10902;SDS011;5504;47.312;11.060;2023-03-17T03:17:11;2.20;;;1.50;;
10902;SDS011;5504;47.312;11.060;2023-03-17T03:19:37;1.70;;;1.60;;
10902;SDS011;5504;47.312;11.060;2023-03-17T03:22:03;1.40;;;1.30;;
10902;SDS011;5504;47.312;11.060;2023-03-17T03:24:29;1.97;;;1.50;;
10902;SDS011;5504;47.312;11.060;2023-03-17T03:26:55;2.97;;;1.57;;
10902;SDS011;5504;47.312;11.060;2023-03-17T03:29:21;1.30;;;1.20;;
10902;SDS011;5504;47.312;11.060;2023-03-17T03:31:46;1.80;;;1.40;;
10902;SDS011;5504;47.312;11.060;2023-03-17T03:34:12;2.30;;;1.57;;
10902;SDS011;5504;47.312;11.060;2023-03-17T03:36:38;3.60;;;1.43;;
10902;SDS011;5504;47.312;11.060;2023-03-17T03:39:04;2.13;;;1.20;;
10902;SDS011;5504;47.312;11.060;2023-03-17T03:41:30;2.17;;;1.30;;
10902;SDS011;5504;47.312;11.060;2023-03-17T03:43:56;1.93;;;1.40;;
10902;SDS011;5504;47.312;11.060;2023-03-17T03:46:21;2.30;;;1.40;;
10902;SDS011;5504;47.312;11.060;2023-03-17T03:48:47;1.50;;;1.20;;
10902;SDS011;5504;47.312;11.060;2023-03-17T03:51:13;1.40;;;1.30;;
10902;SDS011;5504;47.312;11.060;2023-03-17T03:53:38;3.03;;;1.50;;
10902;SDS011;5504;47.312;11.060;2023-03-17T03:56:05;3.10;;;1.30;;
10902;SDS011;5504;47.312;11.060;2023-03-17T03:58:31;1.43;;;1.27;;
10902;SDS011;5504;47.312;11.060;2023-03-17T04:00:56;2.90;;;1.20;;
10902;SDS011;5504;47.312;11.060;2023-03-17T04:03:22;1.50;;;1.40;;
10902;SDS011;5504;47.312;11.060;2023-03-17T04:05:48;2.33;;;1.40;;
10902;SDS011;5504;47.312;11.060;2023-03-17T04:08:13;1.97;;;1.70;;
10902;SDS011;5504;47.312;11.060;2023-03-17T04:10:39;1.70;;;1.37;;
10902;SDS011;5504;47.312;11.060;2023-03-17T04:13:05;1.30;;;1.20;;
10902;SDS011;5504;47.312;11.060;2023-03-17T04:15:30;1.50;;;1.40;;
10902;SDS011;5504;47.312;11.060;2023-03-17T04:17:57;3.27;;;1.57;;
10902;SDS011;5504;47.312;11.060;2023-03-17T04:20:22;2.07;;;1.30;;
10902;SDS011;5504;47.312;11.060;2023-03-17T04:22:48;1.67;;;1.40;;
10902;SDS011;5504;47.312;11.060;2023-03-17T04:25:14;1.73;;;1.27;;
10902;SDS011;5504;47.312;11.060;2023-03-17T04:27:40;2.10;;;1.20;;
10902;SDS011;5504;47.312;11.060;2023-03-17T04:30:07;2.03;;;1.50;;
10902;SDS011;5504;47.312;11.060;2023-03-17T04:32:37;1.40;;;1.30;;
10902;SDS011;5504;47.312;11.060;2023-03-17T04:35:03;2.00;;;1.40;;
10902;SDS011;5504;47.312;11.060;2023-03-17T04:37:30;1.70;;;1.40;;
10902;SDS011;5504;47.312;11.060;2023-03-17T04:39:56;1.27;;;1.17;;
10902;SDS011;5504;47.312;11.060;2023-03-17T04:42:22;2.17;;;1.30;;
10902;SDS011;5504;47.312;11.060;2023-03-17T04:44:47;1.23;;;1.10;;
10902;SDS011;5504;47.312;11.060;2023-03-17T04:47:13;1.83;;;1.20;;
10902;SDS011;5504;47.312;11.060;2023-03-17T04:49:39;2.17;;;1.30;;
10902;SDS011;5504;47.312;11.060;2023-03-17T04:52:05;2.17;;;1.10;;
10902;SDS011;5504;47.312;11.060;2023-03-17T04:54:31;2.30;;;1.20;;
10902;SDS011;5504;47.312;11.060;2023-03-17T04:56:56;2.17;;;1.47;;
10902;SDS011;5504;47.312;11.060;2023-03-17T04:59:22;1.77;;;1.23;;
10902;SDS011;5504;47.312;11.060;2023-03-17T05:01:48;2.87;;;1.50;;
10902;SDS011;5504;47.312;11.060;2023-03-17T05:04:15;2.30;;;1.17;;
10902;SDS011;5504;47.312;11.060;2023-03-17T05:06:40;1.20;;;1.10;;
10902;SDS011;5504;47.312;11.060;2023-03-17T05:09:06;1.63;;;1.20;;
10902;SDS011;5504;47.312;11.060;2023-03-17T05:11:32;1.50;;;1.23;;
10902;SDS011;5504;47.312;11.060;2023-03-17T05:13:58;1.83;;;1.37;;
10902;SDS011;5504;47.312;11.060;2023-03-17T05:16:24;2.50;;;1.40;;
10902;SDS011;5504;47.312;11.060;2023-03-17T05:18:49;1.60;;;1.40;;
10902;SDS011;5504;47.312;11.060;2023-03-17T05:21:15;1.97;;;1.60;;
10902;SDS011;5504;47.312;11.060;2023-03-17T05:23:41;1.57;;;1.30;;
10902;SDS011;5504;47.312;11.060;2023-03-17T05:26:07;1.83;;;1.43;;
10902;SDS011;5504;47.312;11.060;2023-03-17T05:28:32;1.33;;;1.23;;
10902;SDS011;5504;47.312;11.060;2023-03-17T05:30:58;1.57;;;1.47;;
10902;SDS011;5504;47.312;11.060;2023-03-17T05:33:24;1.80;;;1.50;;
10902;SDS011;5504;47.312;11.060;2023-03-17T05:35:50;1.20;;;1.10;;
10902;SDS011;5504;47.312;11.060;2023-03-17T05:38:16;1.30;;;1.20;;
10902;SDS011;5504;47.312;11.060;2023-03-17T05:40:42;1.20;;;1.10;;
10902;SDS011;5504;47.312;11.060;2023-03-17T05:43:08;1.30;;;1.10;;
10902;SDS011;5504;47.312;11.060;2023-03-17T05:45:34;2.40;;;1.10;;
10902;SDS011;5504;47.312;11.060;2023-03-17T05:48:00;1.30;;;1.20;;
10902;SDS011;5504;47.312;11.060;2023-03-17T05:50:27;1.73;;;1.37;;
10902;SDS011;5504;47.312;11.060;2023-03-17T05:52:53;17.20;;;10.30;;
10902;SDS011;5504;47.312;11.060;2023-03-17T05:55:18;15.20;;;8.40;;
10902;SDS011;5504;47.312;11.060;2023-03-17T05:57:44;17.97;;;10.80;;
10902;SDS011;5504;47.312;11.060;2023-03-17T06:00:11;29.90;;;17.80;;
10902;SDS011;5504;47.312;11.060;2023-03-17T06:02:40;22.20;;;14.30;;
10902;SDS011;5504;47.312;11.060;2023-03-17T06:05:06;11.17;;;7.17;;
10902;SDS011;5504;47.312;11.060;2023-03-17T06:07:33;14.07;;;8.17;;
10902;SDS011;5504;47.312;11.060;2023-03-17T06:10:00;14.30;;;9.47;;
10902;SDS011;5504;47.312;11.060;2023-03-17T06:12:26;11.27;;;8.10;;
10902;SDS011;5504;47.312;11.060;2023-03-17T06:14:51;7.67;;;5.60;;
10902;SDS011;5504;47.312;11.060;2023-03-17T06:17:17;10.13;;;6.10;;
10902;SDS011;5504;47.312;11.060;2023-03-17T06:19:43;7.80;;;5.07;;
10902;SDS011;5504;47.312;11.060;2023-03-17T06:22:09;7.83;;;5.73;;
10902;SDS011;5504;47.312;11.060;2023-03-17T06:24:35;4.17;;;3.10;;
10902;SDS011;5504;47.312;11.060;2023-03-17T06:27:01;3.30;;;2.60;;
10902;SDS011;5504;47.312;11.060;2023-03-17T06:29:27;3.83;;;2.60;;
10902;SDS011;5504;47.312;11.060;2023-03-17T06:31:54;3.80;;;2.40;;
10902;SDS011;5504;47.312;11.060;2023-03-17T06:34:20;4.90;;;1.77;;
10902;SDS011;5504;47.312;11.060;2023-03-17T06:36:47;1.73;;;1.40;;
10902;SDS011;5504;47.312;11.060;2023-03-17T06:39:14;3.63;;;1.40;;
10902;SDS011;5504;47.312;11.060;2023-03-17T06:41:40;2.37;;;1.60;;
10902;SDS011;5504;47.312;11.060;2023-03-17T06:44:06;2.33;;;1.50;;
10902;SDS011;5504;47.312;11.060;2023-03-17T06:46:32;1.43;;;1.30;;
10902;SDS011;5504;47.312;11.060;2023-03-17T06:48:59;2.60;;;1.20;;
10902;SDS011;5504;47.312;11.060;2023-03-17T06:51:25;1.63;;;1.40;;
10902;SDS011;5504;47.312;11.060;2023-03-17T06:53:51;2.50;;;1.30;;
10902;SDS011;5504;47.312;11.060;2023-03-17T06:56:17;2.53;;;1.60;;
10902;SDS011;5504;47.312;11.060;2023-03-17T06:58:44;2.13;;;1.50;;
10902;SDS011;5504;47.312;11.060;2023-03-17T07:01:11;3.27;;;1.80;;
10902;SDS011;5504;47.312;11.060;2023-03-17T07:03:38;1.70;;;1.53;;
10902;SDS011;5504;47.312;11.060;2023-03-17T07:06:04;3.73;;;1.67;;
10902;SDS011;5504;47.312;11.060;2023-03-17T07:08:30;2.20;;;1.40;;
10902;SDS011;5504;47.312;11.060;2023-03-17T07:10:58;2.20;;;1.40;;
10902;SDS011;5504;47.312;11.060;2023-03-17T07:13:23;2.70;;;1.43;;
10902;SDS011;5504;47.312;11.060;2023-03-17T07:15:50;2.63;;;1.50;;
10902;SDS011;5504;47.312;11.060;2023-03-17T07:18:16;2.67;;;1.40;;
10902;SDS011;5504;47.312;11.060;2023-03-17T07:20:42;3.30;;;1.73;;
10902;SDS011;5504;47.312;11.060;2023-03-17T07:23:15;2.33;;;1.70;;
10902;SDS011;5504;47.312;11.060;2023-03-17T07:25:44;3.43;;;1.50;;
10902;SDS011;5504;47.312;11.060;2023-03-17T07:28:11;3.83;;;1.50;;
10902;SDS011;5504;47.312;11.060;2023-03-17T07:30:37;3.23;;;1.73;;
10902;SDS011;5504;47.312;11.060;2023-03-17T07:33:04;5.17;;;1.70;;
10902;SDS011;5504;47.312;11.060;2023-03-17T07:35:29;3.90;;;1.60;;
10902;SDS011;5504;47.312;11.060;2023-03-17T07:37:57;5.40;;;2.40;;
10902;SDS011;5504;47.312;11.060;2023-03-17T07:40:23;7.37;;;2.97;;
10902;SDS011;5504;47.312;11.060;2023-03-17T07:42:48;5.03;;;2.83;;
10902;SDS011;5504;47.312;11.060;2023-03-17T07:45:14;4.63;;;2.37;;
10902;SDS011;5504;47.312;11.060;2023-03-17T07:47:40;3.10;;;2.20;;
10902;SDS011;5504;47.312;11.060;2023-03-17T07:50:06;3.00;;;2.10;;
10902;SDS011;5504;47.312;11.060;2023-03-17T07:52:32;14.77;;;8.23;;
10902;SDS011;5504;47.312;11.060;2023-03-17T07:54:58;3.33;;;2.20;;
10902;SDS011;5504;47.312;11.060;2023-03-17T07:57:24;3.37;;;2.17;;
10902;SDS011;5504;47.312;11.060;2023-03-17T07:59:49;2.23;;;1.90;;
10902;SDS011;5504;47.312;11.060;2023-03-17T08:02:16;4.43;;;2.53;;
10902;SDS011;5504;47.312;11.060;2023-03-17T08:04:42;4.97;;;3.20;;
10902;SDS011;5504;47.312;11.060;2023-03-17T08:07:08;3.53;;;3.20;;
10902;SDS011;5504;47.312;11.060;2023-03-17T08:09:35;3.43;;;2.60;;
10902;SDS011;5504;47.312;11.060;2023-03-17T08:12:01;4.50;;;3.13;;
10902;SDS011;5504;47.312;11.060;2023-03-17T08:14:28;6.30;;;3.47;;
10902;SDS011;5504;47.312;11.060;2023-03-17T08:16:54;6.57;;;3.30;;
10902;SDS011;5504;47.312;11.060;2023-03-17T08:19:20;4.90;;;3.47;;
10902;SDS011;5504;47.312;11.060;2023-03-17T08:21:46;4.87;;;3.53;;
10902;SDS011;5504;47.312;11.060;2023-03-17T08:24:12;4.37;;;3.07;;
10902;SDS011;5504;47.312;11.060;2023-03-17T08:26:38;3.47;;;2.57;;
10902;SDS011;5504;47.312;11.060;2023-03-17T08:29:04;6.37;;;2.70;;
10902;SDS011;5504;47.312;11.060;2023-03-17T08:31:30;4.20;;;2.50;;
10902;SDS011;5504;47.312;11.060;2023-03-17T08:33:57;2.60;;;2.33;;
10902;SDS011;5504;47.312;11.060;2023-03-17T08:36:23;3.83;;;2.63;;
10902;SDS011;5504;47.312;11.060;2023-03-17T08:38:50;3.07;;;2.40;;
10902;SDS011;5504;47.312;11.060;2023-03-17T08:41:17;3.90;;;2.77;;
10902;SDS011;5504;47.312;11.060;2023-03-17T08:43:45;2.63;;;2.30;;
10902;SDS011;5504;47.312;11.060;2023-03-17T08:46:13;2.97;;;2.30;;
10902;SDS011;5504;47.312;11.060;2023-03-17T08:48:48;3.57;;;2.67;;
10902;SDS011;5504;47.312;11.060;2023-03-17T08:51:15;3.73;;;2.33;;
10902;SDS011;5504;47.312;11.060;2023-03-17T08:53:41;3.20;;;2.37;;
10902;SDS011;5504;47.312;11.060;2023-03-17T08:56:07;3.73;;;2.60;;
10902;SDS011;5504;47.312;11.060;2023-03-17T08:58:34;3.00;;;2.70;;
10902;SDS011;5504;47.312;11.060;2023-03-17T09:01:01;3.20;;;1.93;;
10902;SDS011;5504;47.312;11.060;2023-03-17T09:03:28;2.77;;;2.00;;
10902;SDS011;5504;47.312;11.060;2023-03-17T09:05:55;2.67;;;2.10;;
10902;SDS011;5504;47.312;11.060;2023-03-17T09:08:22;3.13;;;2.50;;
10902;SDS011;5504;47.312;11.060;2023-03-17T09:10:48;3.90;;;2.50;;
10902;SDS011;5504;47.312;11.060;2023-03-17T09:13:15;2.30;;;2.10;;
10902;SDS011;5504;47.312;11.060;2023-03-17T09:15:41;2.10;;;1.80;;
10902;SDS011;5504;47.312;11.060;2023-03-17T09:18:07;2.00;;;1.60;;
10902;SDS011;5504;47.312;11.060;2023-03-17T09:20:34;2.60;;;1.50;;
10902;SDS011;5504;47.312;11.060;2023-03-17T09:23:04;2.27;;;1.50;;
10902;SDS011;5504;47.312;11.060;2023-03-17T09:25:37;1.40;;;1.30;;
10902;SDS011;5504;47.312;11.060;2023-03-17T09:28:05;1.70;;;1.20;;
10902;SDS011;5504;47.312;11.060;2023-03-17T09:30:31;2.00;;;1.50;;
10902;SDS011;5504;47.312;11.060;2023-03-17T09:32:58;2.53;;;1.60;;
10902;SDS011;5504;47.312;11.060;2023-03-17T09:35:24;1.50;;;1.30;;
10902;SDS011;5504;47.312;11.060;2023-03-17T09:37:55;1.50;;;1.20;;
10902;SDS011;5504;47.312;11.060;2023-03-17T09:40:21;2.20;;;1.20;;
10902;SDS011;5504;47.312;11.060;2023-03-17T09:45:32;2.10;;;1.20;;
10902;SDS011;5504;47.312;11.060;2023-03-17T09:50:59;1.37;;;1.10;;
10902;SDS011;5504;47.312;11.060;2023-03-17T09:56:14;1.57;;;1.10;;
10902;SDS011;5504;47.312;11.060;2023-03-17T09:58:47;2.17;;;1.20;;
10902;SDS011;5504;47.312;11.060;2023-03-17T10:01:21;1.20;;;1.10;;
10902;SDS011;5504;47.312;11.060;2023-03-17T10:03:47;1.10;;;1.00;;
10902;SDS011;5504;47.312;11.060;2023-03-17T10:11:43;1.30;;;0.90;;
10902;SDS011;5504;47.312;11.060;2023-03-17T10:17:26;1.47;;;0.80;;
10902;SDS011;5504;47.312;11.060;2023-03-17T10:19:59;1.33;;;0.90;;
10902;SDS011;5504;47.312;11.060;2023-03-17T10:24:58;1.27;;;0.90;;
10902;SDS011;5504;47.312;11.060;2023-03-17T10:27:29;1.10;;;1.00;;
10902;SDS011;5504;47.312;11.060;2023-03-17T10:30:00;1.87;;;0.90;;
10902;SDS011;5504;47.312;11.060;2023-03-17T10:32:25;1.80;;;1.00;;
10902;SDS011;5504;47.312;11.060;2023-03-17T10:34:53;1.10;;;1.00;;
10902;SDS011;5504;47.312;11.060;2023-03-17T10:37:22;1.60;;;1.03;;
10902;SDS011;5504;47.312;11.060;2023-03-17T10:39:52;1.40;;;1.00;;
10902;SDS011;5504;47.312;11.060;2023-03-17T10:45:10;3.20;;;1.20;;
10902;SDS011;5504;47.312;11.060;2023-03-17T10:47:49;1.17;;;1.00;;
10902;SDS011;5504;47.312;11.060;2023-03-17T10:55:39;1.48;;;1.00;;
10902;SDS011;5504;47.312;11.060;2023-03-17T11:00:35;1.23;;;1.00;;
10902;SDS011;5504;47.312;11.060;2023-03-17T11:03:24;0.90;;;0.90;;
10902;SDS011;5504;47.312;11.060;2023-03-17T11:05:59;1.20;;;1.10;;
10902;SDS011;5504;47.312;11.060;2023-03-17T11:08:35;1.52;;;1.00;;
10902;SDS011;5504;47.312;11.060;2023-03-17T11:11:21;2.17;;;1.10;;
10902;SDS011;5504;47.312;11.060;2023-03-17T11:13:50;1.70;;;0.85;;
10902;SDS011;5504;47.312;11.060;2023-03-17T11:16:25;1.10;;;0.98;;
10902;SDS011;5504;47.312;11.060;2023-03-17T11:18:51;1.10;;;0.90;;
10902;SDS011;5504;47.312;11.060;2023-03-17T11:21:25;1.15;;;0.90;;
10902;SDS011;5504;47.312;11.060;2023-03-17T11:26:32;1.48;;;0.88;;
10902;SDS011;5504;47.312;11.060;2023-03-17T11:34:27;1.33;;;0.98;;
10902;SDS011;5504;47.312;11.060;2023-03-17T11:40:02;1.45;;;1.00;;
10902;SDS011;5504;47.312;11.060;2023-03-17T11:45:30;2.03;;;1.10;;
10902;SDS011;5504;47.312;11.060;2023-03-17T11:50:48;0.80;;;0.80;;
10902;SDS011;5504;47.312;11.060;2023-03-17T11:58:57;1.50;;;0.80;;
10902;SDS011;5504;47.312;11.060;2023-03-17T12:01:28;2.42;;;0.90;;
10902;SDS011;5504;47.312;11.060;2023-03-17T12:04:19;0.90;;;0.90;;
10902;SDS011;5504;47.312;11.060;2023-03-17T12:06:55;2.08;;;0.90;;
10902;SDS011;5504;47.312;11.060;2023-03-17T12:09:36;8.95;;;8.05;;
10902;SDS011;5504;47.312;11.060;2023-03-17T12:12:10;2.08;;;1.70;;
10902;SDS011;5504;47.312;11.060;2023-03-17T12:14:44;1.67;;;1.33;;
10902;SDS011;5504;47.312;11.060;2023-03-17T12:17:18;1.50;;;1.40;;
10902;SDS011;5504;47.312;11.060;2023-03-17T12:22:28;2.38;;;2.28;;
10902;SDS011;5504;47.312;11.060;2023-03-17T12:28:10;1.00;;;0.80;;
10902;SDS011;5504;47.312;11.060;2023-03-17T12:33:45;1.02;;;0.90;;
10902;SDS011;5504;47.312;11.060;2023-03-17T12:36:31;0.80;;;0.80;;
10902;SDS011;5504;47.312;11.060;2023-03-17T12:38:59;0.93;;;0.63;;
10902;SDS011;5504;47.312;11.060;2023-03-17T12:55:30;0.70;;;0.63;;
10902;SDS011;5504;47.312;11.060;2023-03-17T12:58:01;1.77;;;0.88;;
10902;SDS011;5504;47.312;11.060;2023-03-17T13:00:48;0.95;;;0.70;;
10902;SDS011;5504;47.312;11.060;2023-03-17T13:03:22;2.17;;;0.70;;
10902;SDS011;5504;47.312;11.060;2023-03-17T13:06:00;0.70;;;0.70;;
10902;SDS011;5504;47.312;11.060;2023-03-17T13:08:28;1.00;;;0.60;;
10902;SDS011;5504;47.312;11.060;2023-03-17T13:14:26;2.35;;;0.60;;
10902;SDS011;5504;47.312;11.060;2023-03-17T13:16:38;0.98;;;0.60;;
10902;SDS011;5504;47.312;11.060;2023-03-17T13:19:12;1.98;;;0.80;;
10902;SDS011;5504;47.312;11.060;2023-03-17T13:21:42;0.88;;;0.65;;
10902;SDS011;5504;47.312;11.060;2023-03-17T13:26:52;1.02;;;0.70;;
10902;SDS011;5504;47.312;11.060;2023-03-17T13:34:48;0.60;;;0.60;;
10902;SDS011;5504;47.312;11.060;2023-03-17T13:43:08;1.25;;;0.70;;
10902;SDS011;5504;47.312;11.060;2023-03-17T13:45:54;1.75;;;1.00;;
10902;SDS011;5504;47.312;11.060;2023-03-17T13:48:39;1.58;;;0.85;;
10902;SDS011;5504;47.312;11.060;2023-03-17T13:53:47;0.90;;;0.80;;
10902;SDS011;5504;47.312;11.060;2023-03-17T14:04:49;1.50;;;0.80;;
10902;SDS011;5504;47.312;11.060;2023-03-17T14:07:18;1.40;;;0.70;;
10902;SDS011;5504;47.312;11.060;2023-03-17T14:09:49;2.25;;;0.80;;
10902;SDS011;5504;47.312;11.060;2023-03-17T14:12:22;3.38;;;0.80;;
10902;SDS011;5504;47.312;11.060;2023-03-17T14:15:20;1.27;;;0.80;;
10902;SDS011;5504;47.312;11.060;2023-03-17T14:18:01;1.20;;;0.75;;
10902;SDS011;5504;47.312;11.060;2023-03-17T14:20:32;1.58;;;0.80;;
10902;SDS011;5504;47.312;11.060;2023-03-17T14:22:59;1.83;;;0.88;;
10902;SDS011;5504;47.312;11.060;2023-03-17T14:25:33;1.13;;;0.95;;
10902;SDS011;5504;47.312;11.060;2023-03-17T14:28:06;1.67;;;0.95;;
10902;SDS011;5504;47.312;11.060;2023-03-17T14:30:36;0.73;;;0.73;;
10902;SDS011;5504;47.312;11.060;2023-03-17T14:33:14;2.35;;;0.80;;
10902;SDS011;5504;47.312;11.060;2023-03-17T14:35:48;1.15;;;0.90;;
10902;SDS011;5504;47.312;11.060;2023-03-17T14:38:26;0.90;;;0.90;;
10902;SDS011;5504;47.312;11.060;2023-03-17T14:41:01;1.30;;;0.80;;
10902;SDS011;5504;47.312;11.060;2023-03-17T14:43:28;1.77;;;0.80;;
10902;SDS011;5504;47.312;11.060;2023-03-17T14:46:07;0.90;;;0.90;;
10902;SDS011;5504;47.312;11.060;2023-03-17T14:48:37;0.90;;;0.80;;
10902;SDS011;5504;47.312;11.060;2023-03-17T14:51:07;0.70;;;0.70;;
10902;SDS011;5504;47.312;11.060;2023-03-17T14:53:40;1.15;;;0.80;;
10902;SDS011;5504;47.312;11.060;2023-03-17T14:56:10;1.08;;;0.95;;
10902;SDS011;5504;47.312;11.060;2023-03-17T14:58:44;1.02;;;0.90;;
10902;SDS011;5504;47.312;11.060;2023-03-17T15:01:16;2.25;;;0.90;;
10902;SDS011;5504;47.312;11.060;2023-03-17T15:04:11;2.10;;;1.05;;
10902;SDS011;5504;47.312;11.060;2023-03-17T15:06:45;1.30;;;1.08;;
10902;SDS011;5504;47.312;11.060;2023-03-17T15:09:38;0.93;;;0.88;;
10902;SDS011;5504;47.312;11.060;2023-03-17T15:14:49;1.45;;;1.00;;
10902;SDS011;5504;47.312;11.060;2023-03-17T15:17:21;1.38;;;1.00;;
10902;SDS011;5504;47.312;11.060;2023-03-17T15:19:52;1.42;;;1.05;;
10902;SDS011;5504;47.312;11.060;2023-03-17T15:27:25;1.73;;;1.00;;
10902;SDS011;5504;47.312;11.060;2023-03-17T15:29:52;1.33;;;0.75;;
10902;SDS011;5504;47.312;11.060;2023-03-17T15:32:19;1.13;;;0.82;;
10902;SDS011;5504;47.312;11.060;2023-03-17T15:34:47;1.83;;;1.05;;
10902;SDS011;5504;47.312;11.060;2023-03-17T15:37:24;3.33;;;1.00;;
10902;SDS011;5504;47.312;11.060;2023-03-17T15:39:52;1.60;;;0.80;;
10902;SDS011;5504;47.312;11.060;2023-03-17T15:42:20;2.80;;;1.15;;
10902;SDS011;5504;47.312;11.060;2023-03-17T15:44:49;2.13;;;1.10;;
10902;SDS011;5504;47.312;11.060;2023-03-17T15:47:16;1.00;;;0.90;;
10902;SDS011;5504;47.312;11.060;2023-03-17T15:49:44;1.17;;;0.90;;
10902;SDS011;5504;47.312;11.060;2023-03-17T15:54:45;1.40;;;1.00;;
10902;SDS011;5504;47.312;11.060;2023-03-17T15:57:12;3.95;;;1.10;;
10902;SDS011;5504;47.312;11.060;2023-03-17T15:59:38;5.43;;;1.40;;
10902;SDS011;5504;47.312;11.060;2023-03-17T16:02:48;1.75;;;1.20;;
10902;SDS011;5504;47.312;11.060;2023-03-17T16:04:58;3.85;;;1.23;;
10902;SDS011;5504;47.312;11.060;2023-03-17T16:07:27;1.90;;;1.10;;
10902;SDS011;5504;47.312;11.060;2023-03-17T16:09:55;1.80;;;1.00;;
10902;SDS011;5504;47.312;11.060;2023-03-17T16:12:21;3.50;;;1.10;;
10902;SDS011;5504;47.312;11.060;2023-03-17T16:14:47;2.53;;;1.15;;
10902;SDS011;5504;47.312;11.060;2023-03-17T16:17:22;2.10;;;0.90;;
10902;SDS011;5504;47.312;11.060;2023-03-17T16:19:52;2.10;;;1.20;;
10902;SDS011;5504;47.312;11.060;2023-03-17T16:22:35;1.83;;;1.13;;
10902;SDS011;5504;47.312;11.060;2023-03-17T16:25:03;2.10;;;1.10;;
10902;SDS011;5504;47.312;11.060;2023-03-17T16:27:43;2.20;;;0.87;;
10902;SDS011;5504;47.312;11.060;2023-03-17T16:30:13;2.10;;;1.00;;
10902;SDS011;5504;47.312;11.060;2023-03-17T16:32:40;3.07;;;1.43;;
10902;SDS011;5504;47.312;11.060;2023-03-17T16:35:13;5.53;;;1.60;;
10902;SDS011;5504;47.312;11.060;2023-03-17T16:37:43;3.13;;;1.07;;
10902;SDS011;5504;47.312;11.060;2023-03-17T16:40:55;5.83;;;1.40;;
10902;SDS011;5504;47.312;11.060;2023-03-17T16:42:59;6.97;;;1.60;;
10902;SDS011;5504;47.312;11.060;2023-03-17T16:45:28;3.10;;;1.30;;
10902;SDS011;5504;47.312;11.060;2023-03-17T16:47:59;3.33;;;1.13;;
10902;SDS011;5504;47.312;11.060;2023-03-17T16:50:28;1.40;;;1.20;;
10902;SDS011;5504;47.312;11.060;2023-03-17T16:52:56;3.00;;;1.30;;
10902;SDS011;5504;47.312;11.060;2023-03-17T16:55:23;3.40;;;1.13;;
10902;SDS011;5504;47.312;11.060;2023-03-17T16:57:51;4.00;;;1.30;;
10902;SDS011;5504;47.312;11.060;2023-03-17T17:00:21;4.67;;;1.47;;